Time;durP1;ratioP1;P1;durP2;ratioP2;P2;SDS_P1;SDS_P2;PMS_P1;PMS_P2;Temp;Humidity;BMP_temperature;BMP_pressure;BME280_temperature;BME280_humidity;BME280_pressure;Samples;Min_cycle;Max_cycle;Signal;HPM_P1;HPM_P2
2023/09/18 00:00:51;;;;;;;;;;;;;;;24.32;59.88;99614.88;4980936;28;7010;-75
2023/09/18 00:03:20;;;;;;;;;;;;;;;24.32;59.66;99614.88;4960998;28;6856;-75
2023/09/18 00:05:50;;;;;;;;;;;;;;;24.33;59.98;99606.13;4981316;28;6808;-75
2023/09/18 00:08:17;;;;;;;;;;;;;;;24.34;59.83;99600.00;4973047;28;6848;-75
2023/09/18 00:10:49;;;;;;;;;;;;;;;24.37;59.58;99586.84;4993113;28;7262;-75
2023/09/18 00:13:15;;;;;;;;;;;;;;;24.38;59.92;99588.56;4966994;28;7273;-75
2023/09/18 00:15:41;;;;;;;;;;;;;;;24.38;59.87;99572.84;4991700;28;7101;-75
2023/09/18 00:18:06;;;;;;;;;;;;;;;24.40;59.31;99573.69;4997542;28;6976;-75
2023/09/18 00:20:32;;;;;;;;;;;;;;;24.41;59.04;99567.53;4981575;28;6930;-75
2023/09/18 00:22:57;;;;;;;;;;;;;;;24.39;59.45;99559.75;4967636;28;7152;-75
2023/09/18 00:25:22;;;;;;;;;;;;;;;24.39;59.55;99561.47;4981724;28;6772;-75
2023/09/18 00:27:48;;;;;;;;;;;;;;;24.37;59.06;99558.03;4968376;28;6996;-75
2023/09/18 00:30:14;;;;;;;;;;;;;;;24.36;59.17;99558.94;4979158;28;7779;-75
2023/09/18 00:32:40;;;;;;;;;;;;;;;24.34;59.02;99552.88;4966259;28;6966;-75
2023/09/18 00:35:05;;;;;;;;;;;;;;;24.32;59.10;99552.91;4976638;28;6784;-75
2023/09/18 00:37:31;;;;;;;;;;;;;;;24.28;59.02;99551.25;4978830;28;7046;-75
2023/09/18 00:39:56;;;;;;;;;;;;;;;24.25;59.19;99546.97;4961774;28;7221;-75
2023/09/18 00:42:22;;;;;;;;;;;;;;;24.21;58.97;99545.28;4981538;28;6792;-75
2023/09/18 00:44:48;;;;;;;;;;;;;;;24.17;59.38;99542.75;4980586;28;6796;-75
2023/09/18 00:47:15;;;;;;;;;;;;;;;24.12;58.85;99546.34;4981808;28;6860;-75
2023/09/18 00:49:44;;;;;;;;;;;;;;;24.06;58.77;99540.41;4980263;28;6939;-75
2023/09/18 00:52:11;;;;;;;;;;;;;;;24.03;59.64;99545.66;4980050;28;6796;-75
2023/09/18 00:54:38;;;;;;;;;;;;;;;23.99;59.67;99535.25;4983036;28;6878;-75
2023/09/18 00:57:05;;;;;;;;;;;;;;;23.98;59.44;99544.00;4967926;28;7265;-75
2023/09/18 00:59:31;;;;;;;;;;;;;;;23.97;59.42;99547.50;4959419;28;6979;-75
2023/09/18 01:01:57;;;;;;;;;;;;;;;23.96;59.77;99545.81;4991647;28;6796;-75
2023/09/18 01:04:23;;;;;;;;;;;;;;;23.96;59.53;99556.25;4982807;28;6969;-75
2023/09/18 01:06:49;;;;;;;;;;;;;;;23.95;59.75;99553.66;4980853;28;6768;-75
2023/09/18 01:09:19;;;;;;;;;;;;;;;23.93;59.38;99545.84;4964861;28;7205;-75
2023/09/18 01:12:03;;;;;;;;;;;;;;;23.92;60.13;99554.59;4977676;28;6979;-75
2023/09/18 01:14:34;;;;;;;;;;;;;;;23.91;59.44;99542.41;4996846;28;7030;-75
2023/09/18 01:17:03;;;;;;;;;;;;;;;23.91;60.46;99533.72;4982117;28;7221;-75
2023/09/18 01:19:36;;;;;;;;;;;;;;;23.92;59.80;99520.56;4980589;28;6800;-75
2023/09/18 01:22:02;;;;;;;;;;;;;;;23.92;60.33;99512.72;4979487;28;6855;-75
2023/09/18 01:24:27;;;;;;;;;;;;;;;23.93;60.40;99511.81;4980764;28;6784;-75
2023/09/18 01:26:53;;;;;;;;;;;;;;;23.93;59.87;99509.22;4960563;28;7217;-75
2023/09/18 01:29:19;;;;;;;;;;;;;;;23.92;60.01;99499.63;4980075;28;6859;-75
2023/09/18 01:31:48;;;;;;;;;;;;;;;23.91;60.01;99500.53;4971337;28;7254;-75
2023/09/18 01:34:16;;;;;;;;;;;;;;;23.90;59.69;99497.94;4979638;28;6864;-75
2023/09/18 01:36:43;;;;;;;;;;;;;;;23.88;59.61;99502.34;4978448;28;6989;-75
2023/09/18 01:39:10;;;;;;;;;;;;;;;23.85;59.50;99500.66;4981107;28;7013;-75
2023/09/18 01:41:37;;;;;;;;;;;;;;;23.81;59.50;99496.41;4977589;28;7261;-75
2023/09/18 01:44:04;;;;;;;;;;;;;;;23.79;59.98;99482.50;4977793;28;6999;-75
2023/09/18 01:46:32;;;;;;;;;;;;;;;23.77;60.43;99484.28;4973170;28;6804;-75
2023/09/18 01:48:58;;;;;;;;;;;;;;;23.74;60.29;99473.88;4972162;28;6832;-75
2023/09/18 01:51:24;;;;;;;;;;;;;;;23.72;60.00;99476.53;4978710;28;7464;-77
2023/09/18 01:53:50;;;;;;;;;;;;;;;23.71;60.58;99475.66;4980908;28;6815;-76
2023/09/18 01:56:16;;;;;;;;;;;;;;;23.71;60.71;99474.81;4980244;28;6792;-76
2023/09/18 01:58:41;;;;;;;;;;;;;;;23.70;60.44;99471.34;4978692;28;6862;-76
2023/09/18 02:01:06;;;;;;;;;;;;;;;23.71;60.89;99467.81;4980213;28;7208;-76
2023/09/18 02:03:33;;;;;;;;;;;;;;;23.70;60.92;99466.09;4958879;28;7068;-76
2023/09/18 02:05:58;;;;;;;;;;;;;;;23.70;60.62;99458.25;4982150;28;7016;-77
2023/09/18 02:08:24;;;;;;;;;;;;;;;23.71;60.60;99451.28;4962260;28;6969;-76
2023/09/18 02:10:49;;;;;;;;;;;;;;;23.75;61.16;99467.75;4962389;28;6992;-76
2023/09/18 02:13:15;;;;;;;;;;;;;;;23.79;60.59;99469.41;4997150;28;6788;-76
2023/09/18 02:15:40;;;;;;;;;;;;;;;23.82;60.46;99480.69;4965910;28;7242;-76
2023/09/18 02:18:06;;;;;;;;;;;;;;;23.83;60.75;99466.69;4974767;28;7226;-76
2023/09/18 02:20:32;;;;;;;;;;;;;;;23.86;60.49;99471.00;4978440;28;6838;-76
2023/09/18 02:22:57;;;;;;;;;;;;;;;23.88;60.70;99464.00;4980051;28;6841;-76
2023/09/18 02:25:23;;;;;;;;;;;;;;;23.90;60.83;99451.72;4978536;28;6792;-76
2023/09/18 02:27:49;;;;;;;;;;;;;;;23.93;60.76;99441.19;4978662;28;6796;-75
2023/09/18 02:30:15;;;;;;;;;;;;;;;23.97;60.72;99441.97;4963445;28;7384;-75
2023/09/18 02:32:40;;;;;;;;;;;;;;;24.02;60.78;99444.50;4978046;28;7003;-75
2023/09/18 02:35:07;;;;;;;;;;;;;;;24.08;60.39;99434.75;4974546;28;6855;-75
2023/09/18 02:37:32;;;;;;;;;;;;;;;24.16;60.14;99425.88;4954950;28;7261;-75
2023/09/18 02:39:58;;;;;;;;;;;;;;;24.24;60.39;99424.81;4964931;28;6806;-75
2023/09/18 02:42:23;;;;;;;;;;;;;;;24.32;60.04;99421.13;4978922;28;6791;-75
2023/09/18 02:44:49;;;;;;;;;;;;;;;24.40;59.79;99416.56;4965244;28;7031;-75
2023/09/18 02:47:14;;;;;;;;;;;;;;;24.50;59.47;99425.06;4992487;28;7539;-75
2023/09/18 02:49:40;;;;;;;;;;;;;;;24.59;59.45;99421.34;4995920;28;6975;-75
2023/09/18 02:52:05;;;;;;;;;;;;;;;24.62;58.39;99416.88;4964680;28;7020;-75
2023/09/18 02:54:31;;;;;;;;;;;;;;;24.55;58.43;99410.09;4997092;28;7083;-74
2023/09/18 02:56:56;;;;;;;;;;;;;;;24.43;59.06;99392.91;4981399;28;6795;-73
2023/09/18 02:59:22;;;;;;;;;;;;;;;24.34;59.10;99380.94;4979105;28;6998;-74
2023/09/18 03:01:49;;;;;;;;;;;;;;;24.31;59.10;99375.78;4961321;28;6946;-74
2023/09/18 03:04:14;;;;;;;;;;;;;;;24.34;59.10;99367.00;4979902;28;6808;-74
2023/09/18 03:06:41;;;;;;;;;;;;;;;24.39;58.81;99363.34;4998137;28;6791;-75
2023/09/18 03:09:06;;;;;;;;;;;;;;;24.46;58.92;99358.81;4977390;28;6808;-74
2023/09/18 03:11:32;;;;;;;;;;;;;;;24.54;58.33;99359.47;4977011;28;6787;-74
2023/09/18 03:13:57;;;;;;;;;;;;;;;24.58;58.70;99349.78;4980576;28;6784;-74
2023/09/18 03:16:23;;;;;;;;;;;;;;;24.61;58.09;99351.44;4974711;28;6779;-74
2023/09/18 03:18:48;;;;;;;;;;;;;;;24.62;58.51;99340.94;4974914;28;6864;-74
2023/09/18 03:21:14;;;;;;;;;;;;;;;24.65;58.22;99326.91;4979710;28;6796;-74
2023/09/18 03:23:39;;;;;;;;;;;;;;;24.67;58.54;99328.59;4980471;28;8112;-74
2023/09/18 03:26:05;;;;;;;;;;;;;;;24.69;57.80;99325.91;4982129;28;6795;-75
2023/09/18 03:28:31;;;;;;;;;;;;;;;24.69;57.76;99321.53;4982475;28;6867;-75
2023/09/18 03:30:58;;;;;;;;;;;;;;;24.66;58.31;99312.91;4983625;28;6930;-74
2023/09/18 03:33:23;;;;;;;;;;;;;;;24.63;57.86;99316.44;4984891;28;6999;-73
2023/09/18 03:35:51;;;;;;;;;;;;;;;24.58;58.49;99343.66;4990879;28;6963;-74
2023/09/18 03:38:17;;;;;;;;;;;;;;;24.49;57.97;99361.34;4992205;28;6832;-74
2023/09/18 03:40:43;;;;;;;;;;;;;;;24.41;58.03;99371.16;4981727;28;6976;-74
2023/09/18 03:43:10;;;;;;;;;;;;;;;24.31;58.45;99383.63;4985109;28;6799;-74
2023/09/18 03:45:35;;;;;;;;;;;;;;;24.17;58.46;99370.88;4965990;28;7138;-75
2023/09/18 03:48:01;;;;;;;;;;;;;;;24.02;59.13;99368.59;4997954;28;6783;-74
2023/09/18 03:50:27;;;;;;;;;;;;;;;23.86;59.19;99350.66;4982459;28;6930;-73
2023/09/18 03:52:52;;;;;;;;;;;;;;;23.71;59.89;99342.28;4958836;28;8366;-73
2023/09/18 03:55:18;;;;;;;;;;;;;;;23.65;59.37;99359.88;4977688;28;6779;-74
2023/09/18 03:57:45;;;;;;;;;;;;;;;23.58;60.27;99365.22;4963735;28;7039;-74
2023/09/18 04:00:12;;;;;;;;;;;;;;;23.55;60.16;99364.41;4954297;28;6881;-73
2023/09/18 04:02:38;;;;;;;;;;;;;;;23.51;60.23;99360.16;4977171;28;6825;-74
2023/09/18 04:05:03;;;;;;;;;;;;;;;23.49;60.22;99351.50;4978513;28;6852;-74
2023/09/18 04:07:31;;;;;;;;;;;;;;;23.46;60.56;99351.56;4977176;28;6792;-73
2023/09/18 04:09:57;;;;;;;;;;;;;;;23.44;60.50;99347.22;4964832;28;7065;-73
2023/09/18 04:12:23;;;;;;;;;;;;;;;23.42;60.39;99346.41;4980903;28;7250;-73
2023/09/18 04:14:48;;;;;;;;;;;;;;;23.40;60.30;99342.09;4974450;28;6840;-73
2023/09/18 04:17:16;;;;;;;;;;;;;;;23.38;60.24;99338.66;4978319;28;6800;-74
2023/09/18 04:19:43;;;;;;;;;;;;;;;23.36;60.53;99330.00;4996427;28;7039;-73
2023/09/18 04:22:08;;;;;;;;;;;;;;;23.34;60.23;99331.78;4985052;28;6800;-74
2023/09/18 04:24:34;;;;;;;;;;;;;;;23.34;60.49;99321.34;4968354;28;7147;-73
2023/09/18 04:26:59;;;;;;;;;;;;;;;23.32;60.57;99305.69;5000598;28;8451;-73
2023/09/18 04:29:25;;;;;;;;;;;;;;;23.28;60.40;99306.66;4983931;28;6792;-74
2023/09/18 04:31:50;;;;;;;;;;;;;;;23.25;60.63;99314.50;4982030;28;6792;-74
2023/09/18 04:34:16;;;;;;;;;;;;;;;23.24;60.30;99320.63;4984043;28;6852;-73
2023/09/18 04:36:43;;;;;;;;;;;;;;;23.18;60.38;99319.00;4968341;28;6978;-73
2023/09/18 04:39:09;;;;;;;;;;;;;;;23.15;60.83;99322.53;4997481;28;6815;-73
2023/09/18 04:41:34;;;;;;;;;;;;;;;23.13;60.79;99326.06;4964758;28;6967;-74
2023/09/18 04:44:00;;;;;;;;;;;;;;;23.10;60.71;99329.63;4981682;28;6983;-73
2023/09/18 04:46:25;;;;;;;;;;;;;;;23.09;61.03;99325.31;4965507;28;7214;-73
2023/09/18 04:48:51;;;;;;;;;;;;;;;23.09;60.91;99313.97;4962458;28;7208;-73
2023/09/18 04:51:17;;;;;;;;;;;;;;;23.08;60.90;99313.13;4982553;28;6962;-74
2023/09/18 04:53:42;;;;;;;;;;;;;;;23.09;60.94;99300.91;4964762;28;7217;-73
2023/09/18 04:56:09;;;;;;;;;;;;;;;23.09;60.75;99296.56;4967926;28;7131;-73
2023/09/18 04:58:37;;;;;;;;;;;;;;;23.11;60.91;99286.06;4982578;28;7322;-73
2023/09/18 05:01:04;;;;;;;;;;;;;;;23.12;60.69;99309.56;4958207;28;8563;-73
2023/09/18 05:03:30;;;;;;;;;;;;;;;23.14;61.19;99299.91;4968692;28;8519;-74
2023/09/18 05:05:55;;;;;;;;;;;;;;;23.16;60.90;99312.97;4985598;28;6776;-73
2023/09/18 05:08:22;;;;;;;;;;;;;;;23.17;60.42;99325.97;4963091;28;6979;-74
2023/09/18 05:10:47;;;;;;;;;;;;;;;23.19;60.63;99325.94;4984625;28;6864;-73
2023/09/18 05:13:13;;;;;;;;;;;;;;;23.22;60.96;99314.59;4983921;28;6856;-73
2023/09/18 05:15:39;;;;;;;;;;;;;;;23.25;60.58;99324.97;4975721;28;6792;-73
2023/09/18 05:18:04;;;;;;;;;;;;;;;23.29;60.82;99337.13;4967246;28;6964;-73
2023/09/18 05:20:31;;;;;;;;;;;;;;;23.31;60.68;99337.94;4984275;28;6832;-73
2023/09/18 05:22:58;;;;;;;;;;;;;;;23.35;60.93;99342.19;4969356;28;7161;-73
2023/09/18 05:25:25;;;;;;;;;;;;;;;23.38;60.55;99350.00;4966425;28;7157;-74
2023/09/18 05:27:56;;;;;;;;;;;;;;;23.40;59.95;99358.66;4985309;28;7211;-74
2023/09/18 05:30:30;;;;;;;;;;;;;;;23.44;60.45;99364.69;4979873;28;6982;-73
2023/09/18 05:32:57;;;;;;;;;;;;;;;23.49;60.47;99356.72;4966424;28;7229;-74
2023/09/18 05:35:23;;;;;;;;;;;;;;;23.50;60.28;99348.84;4985325;28;7093;-73
2023/09/18 05:37:50;;;;;;;;;;;;;;;23.53;60.00;99354.03;4971772;28;6823;-74
2023/09/18 05:40:16;;;;;;;;;;;;;;;23.55;60.18;99340.88;4977155;28;6999;-74
2023/09/18 05:42:43;;;;;;;;;;;;;;;23.58;59.51;99330.38;4973228;28;6912;-74
2023/09/18 05:45:10;;;;;;;;;;;;;;;23.59;59.55;99332.09;4973061;28;6800;-74
2023/09/18 05:47:35;;;;;;;;;;;;;;;23.61;59.39;99330.31;4977585;28;6965;-74
2023/09/18 05:50:06;;;;;;;;;;;;;;;23.63;59.19;99332.91;4978381;28;6788;-73
2023/09/18 05:52:32;;;;;;;;;;;;;;;23.66;59.66;99346.75;4977626;28;7464;-72
2023/09/18 05:54:58;;;;;;;;;;;;;;;23.67;59.08;99339.75;4976462;28;6883;-73
2023/09/18 05:57:23;;;;;;;;;;;;;;;23.68;59.27;99344.97;4982267;28;6791;-74
2023/09/18 05:59:49;;;;;;;;;;;;;;;23.69;59.38;99351.91;4976159;28;7032;-74
2023/09/18 06:02:16;;;;;;;;;;;;;;;23.70;59.04;99348.41;4979394;28;6914;-74
2023/09/18 06:04:42;;;;;;;;;;;;;;;23.71;59.17;99347.50;4978545;28;7031;-75
2023/09/18 06:07:07;;;;;;;;;;;;;;;23.74;59.28;99349.19;4960328;28;7177;-74
2023/09/18 06:09:33;;;;;;;;;;;;;;;23.75;59.31;99363.13;4995204;28;6939;-75
2023/09/18 06:12:00;;;;;;;;;;;;;;;23.76;59.38;99362.22;4966413;28;8487;-74
2023/09/18 06:14:25;;;;;;;;;;;;;;;23.77;59.39;99362.19;4981159;28;6800;-73
2023/09/18 06:16:51;;;;;;;;;;;;;;;23.80;58.48;99358.66;4978376;28;6944;-74
2023/09/18 06:19:17;;;;;;;;;;;;;;;23.82;58.92;99367.31;4981060;28;6792;-74
2023/09/18 06:21:43;;;;;;;;;;;;;;;23.84;59.22;99369.00;4967445;28;6984;-74
2023/09/18 06:24:09;;;;;;;;;;;;;;;23.87;58.92;99381.16;4986007;28;6800;-73
2023/09/18 06:26:35;;;;;;;;;;;;;;;23.88;58.48;99375.03;4956779;28;8507;-73
2023/09/18 06:29:02;;;;;;;;;;;;;;;23.92;58.78;99387.13;4957805;28;7534;-74
2023/09/18 06:31:28;;;;;;;;;;;;;;;23.94;58.79;99392.34;4975323;28;6799;-74
2023/09/18 06:33:54;;;;;;;;;;;;;;;23.96;58.56;99404.50;4979637;28;7233;-73
2023/09/18 06:36:19;;;;;;;;;;;;;;;23.98;58.98;99400.09;4961165;28;7036;-74
2023/09/18 06:38:45;;;;;;;;;;;;;;;24.00;58.34;99403.53;4963200;28;6962;-74
2023/09/18 06:41:10;;;;;;;;;;;;;;;24.04;58.18;99412.19;4964837;28;7029;-73
2023/09/18 06:43:36;;;;;;;;;;;;;;;24.05;57.96;99405.22;4958322;28;6967;-73
2023/09/18 06:46:01;;;;;;;;;;;;;;;24.08;58.21;99407.75;4980906;28;6799;-72
2023/09/18 06:48:31;;;;;;;;;;;;;;;24.08;58.39;99403.34;4979355;28;6875;-74
2023/09/18 06:50:57;;;;;;;;;;;;;;;24.10;57.82;99398.97;4998664;28;7437;-74
2023/09/18 06:53:23;;;;;;;;;;;;;;;24.12;57.55;99409.38;4979816;28;6796;-73
2023/09/18 06:55:48;;;;;;;;;;;;;;;24.12;57.60;99409.38;4978962;28;7309;-72
2023/09/18 06:58:14;;;;;;;;;;;;;;;24.11;57.14;99410.28;4983386;28;7300;-73
2023/09/18 07:00:39;;;;;;;;;;;;;;;24.09;57.41;99418.16;4979413;28;6799;-73
2023/09/18 07:03:06;;;;;;;;;;;;;;;24.10;57.22;99416.41;4981053;28;6863;-74
2023/09/18 07:05:31;;;;;;;;;;;;;;;24.10;57.19;99417.28;4984122;28;7017;-73
2023/09/18 07:07:57;;;;;;;;;;;;;;;24.11;57.13;99418.13;4983624;28;7398;-72
2023/09/18 07:10:22;;;;;;;;;;;;;;;24.11;57.23;99429.47;4984870;28;7596;-75
2023/09/18 07:12:48;;;;;;;;;;;;;;;24.11;56.91;99442.56;4964873;28;7227;-73
2023/09/18 07:15:13;;;;;;;;;;;;;;;24.12;56.51;99438.16;4963193;28;6970;-74
2023/09/18 07:17:39;;;;;;;;;;;;;;;24.11;56.69;99431.22;4987716;28;7082;-73
2023/09/18 07:20:13;;;;;;;;;;;;;;;24.10;56.50;99419.03;4970188;28;6819;-73
2023/09/18 07:22:40;;;;;;;;;;;;;;;24.11;56.45;99439.06;4989294;28;6844;-73
2023/09/18 07:25:06;;;;;;;;;;;;;;;24.11;57.29;99423.38;4996170;28;7163;-74
2023/09/18 07:27:32;;;;;;;;;;;;;;;24.09;56.71;99415.53;5004016;28;7327;-74
2023/09/18 07:29:58;;;;;;;;;;;;;;;24.11;56.60;99434.72;4967121;28;6991;-74
2023/09/18 07:32:26;;;;;;;;;;;;;;;24.11;56.74;99434.72;4986086;28;6998;-73
2023/09/18 07:34:52;;;;;;;;;;;;;;;24.12;56.84;99452.13;4972452;28;7099;-72
2023/09/18 07:37:20;;;;;;;;;;;;;;;24.15;56.60;99452.94;4986748;28;7083;-73
2023/09/18 07:39:46;;;;;;;;;;;;;;;24.16;56.66;99458.16;4986406;28;6995;-73
2023/09/18 07:42:12;;;;;;;;;;;;;;;24.17;56.35;99459.88;4988588;28;7320;-73
2023/09/18 07:44:37;;;;;;;;;;;;;;;24.19;56.62;99467.69;4969786;28;6963;-73
2023/09/18 07:47:03;;;;;;;;;;;;;;;24.22;57.05;99458.00;4982789;28;6795;-73
2023/09/18 07:49:29;;;;;;;;;;;;;;;24.24;57.00;99456.22;4988115;28;7119;-74
2023/09/18 07:51:54;;;;;;;;;;;;;;;24.30;56.27;99449.09;4985192;28;7211;-72
2023/09/18 07:54:20;;;;;;;;;;;;;;;24.33;56.20;99459.50;4970799;28;7182;-73
2023/09/18 07:56:45;;;;;;;;;;;;;;;24.36;55.90;99455.06;4985887;28;6796;-73
2023/09/18 07:59:11;;;;;;;;;;;;;;;24.39;55.98;99460.25;4983032;28;6795;-74
2023/09/18 08:01:36;;;;;;;;;;;;;;;24.42;55.87;99459.28;5001065;28;6808;-72
2023/09/18 08:04:02;;;;;;;;;;;;;;;24.46;55.82;99474.03;4964636;28;7018;-72
2023/09/18 08:06:28;;;;;;;;;;;;;;;24.55;55.65;99492.16;4964917;28;6978;-72
2023/09/18 08:08:53;;;;;;;;;;;;;;;24.58;55.75;99492.97;4976915;28;7098;-73
2023/09/18 08:11:19;;;;;;;;;;;;;;;24.63;55.73;99496.34;4976949;28;6788;-73
2023/09/18 08:13:44;;;;;;;;;;;;;;;24.67;56.05;99495.34;4965202;28;7033;-72
2023/09/18 08:16:10;;;;;;;;;;;;;;;24.71;56.05;99502.22;4974710;28;6962;-72
2023/09/18 08:18:38;;;;;;;;;;;;;;;24.73;55.43;99489.97;4960899;28;6914;-74
2023/09/18 08:21:04;;;;;;;;;;;;;;;24.77;55.58;99502.09;4981624;28;7158;-72
2023/09/18 08:23:32;;;;;;;;;;;;;;;24.80;55.35;99502.03;4977400;28;6859;-72
2023/09/18 08:25:58;;;;;;;;;;;;;;;24.84;55.24;99507.22;4981995;28;6876;-73
2023/09/18 08:28:23;;;;;;;;;;;;;;;24.87;54.79;99507.13;4962067;28;6965;-74
2023/09/18 08:30:49;;;;;;;;;;;;;;;24.91;55.01;99507.00;4980955;28;6792;-73
2023/09/18 08:33:14;;;;;;;;;;;;;;;24.98;54.61;99515.56;4977774;28;7223;-72
2023/09/18 08:35:40;;;;;;;;;;;;;;;25.05;54.73;99511.91;4965759;28;6964;-72
2023/09/18 08:38:06;;;;;;;;;;;;;;;25.16;54.55;99519.47;4982673;28;6792;-72
2023/09/18 08:40:34;;;;;;;;;;;;;;;25.22;54.62;99523.69;4980344;28;7060;-74
2023/09/18 08:43:01;;;;;;;;;;;;;;;25.31;54.41;99522.59;4971137;28;6965;-73
2023/09/18 08:45:38;;;;;;;;;;;;;;;25.37;54.05;99523.25;4955679;28;7170;-73
2023/09/18 08:48:04;;;;;;;;;;;;;;;25.47;54.15;99523.88;4982562;28;7313;-73
2023/09/18 08:50:30;;;;;;;;;;;;;;;25.56;53.90;99520.16;4966966;28;6899;-73
2023/09/18 08:52:55;;;;;;;;;;;;;;;25.64;53.50;99514.69;4979538;28;6818;-72
2023/09/18 08:55:22;;;;;;;;;;;;;;;25.69;53.76;99506.69;4994266;28;7040;-73
2023/09/18 08:57:49;;;;;;;;;;;;;;;25.74;53.57;99510.94;4980439;28;6879;-74
2023/09/18 09:00:16;;;;;;;;;;;;;;;25.79;52.77;99513.41;4979760;28;7230;-73
2023/09/18 09:02:44;;;;;;;;;;;;;;;25.78;52.78;99511.66;4982485;28;6807;-73
2023/09/18 09:05:09;;;;;;;;;;;;;;;25.81;52.61;99511.59;4963999;28;7271;-72
2023/09/18 09:07:35;;;;;;;;;;;;;;;25.82;52.49;99509.81;4980723;28;6870;-73
2023/09/18 09:10:00;;;;;;;;;;;;;;;25.82;52.04;99512.44;4979378;28;6784;-74
2023/09/18 09:12:48;;;;;;;;;;;;;;;25.82;52.16;99502.81;4961022;28;7207;-72
2023/09/18 09:15:14;;;;;;;;;;;;;;;25.82;52.18;99499.31;4982889;28;6902;-74
2023/09/18 09:17:41;;;;;;;;;;;;;;;25.79;52.04;99498.53;4960537;28;6975;-73
2023/09/18 09:20:12;;;;;;;;;;;;;;;25.76;52.02;99503.88;4960486;28;6962;-72
2023/09/18 09:22:40;;;;;;;;;;;;;;;25.76;52.12;99516.13;4970596;28;6980;-73
2023/09/18 09:25:31;;;;;;;;;;;;;;;25.74;52.07;99517.94;4962166;28;7264;-73
2023/09/18 09:27:58;;;;;;;;;;;;;;;25.75;51.85;99519.66;5001885;28;7232;-74
2023/09/18 09:30:26;;;;;;;;;;;;;;;25.78;52.34;99524.78;4981568;28;7002;-73
2023/09/18 09:32:54;;;;;;;;;;;;;;;25.82;52.32;99521.19;4994605;28;6824;-75
2023/09/18 09:35:27;;;;;;;;;;;;;;;25.88;52.34;99518.41;4994777;28;7284;-73
2023/09/18 09:37:57;;;;;;;;;;;;;;;25.92;51.87;99514.75;4987638;28;6879;-74
2023/09/18 09:40:25;;;;;;;;;;;;;;;25.98;51.74;99518.09;4980790;28;6996;-73
2023/09/18 09:43:00;;;;;;;;;;;;;;;26.04;51.96;99531.03;4980331;28;6812;-73
2023/09/18 09:45:28;;;;;;;;;;;;;;;26.12;51.79;99531.69;5003448;28;6826;-73
2023/09/18 09:47:54;;;;;;;;;;;;;;;26.24;51.27;99521.72;4996950;28;6816;-73
2023/09/18 09:50:21;;;;;;;;;;;;;;;26.29;51.08;99510.19;4986803;28;7184;-73
2023/09/18 09:52:50;;;;;;;;;;;;;;;26.34;50.91;99515.28;4985442;28;6835;-74
2023/09/18 09:55:34;;;;;;;;;;;;;;;26.36;50.62;99517.88;4973437;28;7266;-72
2023/09/18 09:58:02;;;;;;;;;;;;;;;26.38;51.15;99518.69;4963360;28;6996;-74
2023/09/18 10:00:45;;;;;;;;;;;;;;;26.40;50.92;99511.59;4966615;28;7948;-74
2023/09/18 10:03:16;;;;;;;;;;;;;;;26.42;50.57;99515.91;4981325;28;6855;-72
2023/09/18 10:05:44;;;;;;;;;;;;;;;26.47;50.36;99518.38;4962227;28;6991;-74
2023/09/18 10:08:13;;;;;;;;;;;;;;;26.53;50.15;99520.81;4984139;28;6804;-76
2023/09/18 10:10:52;;;;;;;;;;;;;;;26.61;50.17;99517.94;4982866;28;6966;-73
2023/09/18 10:13:30;;;;;;;;;;;;;;;26.72;50.65;99526.31;4977018;28;6820;-74
2023/09/18 10:15:56;;;;;;;;;;;;;;;26.97;50.70;99516.78;4999648;28;6867;-74
2023/09/18 10:18:59;;;;;;;;;;;;;;;27.85;50.19;99518.94;4978653;28;6887;-74
2023/09/18 10:21:54;;;;;;;;;;;;;;;29.23;48.09;99509.91;4997066;28;7168;-74
2023/09/18 10:24:24;;;;;;;;;;;;;;;30.29;45.49;99507.78;4980163;28;6824;-74
2023/09/18 10:26:58;;;;;;;;;;;;;;;31.06;44.49;99504.91;4962476;28;6890;-74
2023/09/18 10:29:24;;;;;;;;;;;;;;;31.80;43.20;99499.28;4982127;28;7286;-74
2023/09/18 10:31:52;;;;;;;;;;;;;;;32.40;42.15;99503.94;4996535;28;6865;-74
2023/09/18 10:34:18;;;;;;;;;;;;;;;32.74;40.68;99506.41;4978837;28;7200;-74
2023/09/18 10:36:47;;;;;;;;;;;;;;;32.85;40.30;99507.56;4975441;28;6987;-74
2023/09/18 10:39:12;;;;;;;;;;;;;;;33.09;40.14;99506.09;4981593;28;6808;-74
2023/09/18 10:41:39;;;;;;;;;;;;;;;33.44;38.81;99498.75;4981465;28;7040;-74
2023/09/18 10:44:06;;;;;;;;;;;;;;;33.72;38.30;99502.34;4975773;28;6796;-74
2023/09/18 10:46:32;;;;;;;;;;;;;;;34.07;37.63;99507.22;4979767;28;7023;-74
2023/09/18 10:49:00;;;;;;;;;;;;;;;34.35;36.99;99502.75;4978103;28;6992;-75
2023/09/18 10:51:26;;;;;;;;;;;;;;;34.38;36.17;99507.84;4980445;28;7294;-74
2023/09/18 10:53:54;;;;;;;;;;;;;;;34.42;36.32;99512.03;4978591;28;7218;-75
2023/09/18 10:56:20;;;;;;;;;;;;;;;34.65;35.72;99527.47;4962238;28;7206;-74
2023/09/18 10:58:46;;;;;;;;;;;;;;;34.94;35.55;99514.81;4978649;28;6835;-75
2023/09/18 11:01:13;;;;;;;;;;;;;;;34.93;35.05;99510.47;4971688;28;6935;-75
2023/09/18 11:03:38;;;;;;;;;;;;;;;35.03;34.78;99522.16;4980408;28;6971;-74
2023/09/18 11:06:14;;;;;;;;;;;;;;;35.22;33.82;99504.97;4994488;28;6788;-74
2023/09/18 11:08:47;;;;;;;;;;;;;;;35.30;32.85;99528.41;4979463;28;7204;-74
2023/09/18 11:11:14;;;;;;;;;;;;;;;34.92;33.41;99532.72;4962509;28;6982;-75
2023/09/18 11:13:49;;;;;;;;;;;;;;;34.61;33.30;99521.47;4963098;28;7077;-75
2023/09/18 11:16:27;;;;;;;;;;;;;;;34.47;33.74;99528.53;4979721;28;6808;-74
2023/09/18 11:18:58;;;;;;;;;;;;;;;34.67;32.94;99521.09;4981242;28;6800;-75
2023/09/18 11:21:27;;;;;;;;;;;;;;;34.88;32.68;99533.88;4979386;28;7054;-75
2023/09/18 11:24:00;;;;;;;;;;;;;;;35.09;32.18;99522.75;4981761;28;6800;-75
2023/09/18 11:26:37;;;;;;;;;;;;;;;35.36;32.27;99522.63;4979564;28;6800;-75
2023/09/18 11:29:09;;;;;;;;;;;;;;;35.70;31.57;99514.09;4977938;28;6993;-75
2023/09/18 11:31:45;;;;;;;;;;;;;;;36.27;31.61;99515.31;4975319;28;7129;-75
2023/09/18 11:34:22;;;;;;;;;;;;;;;36.79;31.02;99509.69;4981303;28;7647;-74
2023/09/18 11:36:48;;;;;;;;;;;;;;;37.04;30.75;99509.63;4961917;28;7195;-74
2023/09/18 11:39:34;;;;;;;;;;;;;;;37.14;30.71;99507.97;4967121;28;6968;-75
2023/09/18 11:42:12;;;;;;;;;;;;;;;37.26;30.46;99518.66;4998155;28;6812;-75
2023/09/18 11:44:43;;;;;;;;;;;;;;;37.00;30.23;99524.19;4979890;28;7150;-75
2023/09/18 11:47:19;;;;;;;;;;;;;;;36.65;29.89;99524.09;4964077;28;8086;-75
2023/09/18 11:50:11;;;;;;;;;;;;;;;36.62;29.80;99510.13;4978499;28;7048;-75
2023/09/18 11:52:37;;;;;;;;;;;;;;;36.61;29.26;99503.97;4975727;28;6835;-75
2023/09/18 11:55:03;;;;;;;;;;;;;;;36.24;29.95;99512.03;4982254;28;6800;-75
2023/09/18 11:57:35;;;;;;;;;;;;;;;36.28;29.79;99497.47;4984864;28;6820;-75
2023/09/18 12:00:11;;;;;;;;;;;;;;;36.53;29.73;99493.81;4983637;28;6815;-74
2023/09/18 12:02:41;;;;;;;;;;;;;;;36.83;29.51;99486.28;4978427;28;7003;-74
2023/09/18 12:05:18;;;;;;;;;;;;;;;37.12;29.36;99491.22;4985282;28;6815;-74
2023/09/18 12:07:45;;;;;;;;;;;;;;;37.42;29.24;99489.75;4996445;28;6796;-74
2023/09/18 12:10:11;;;;;;;;;;;;;;;37.59;28.50;99492.94;4967059;28;6991;-74
2023/09/18 12:12:37;;;;;;;;;;;;;;;37.46;27.79;99491.19;4982331;28;6804;-74
2023/09/18 12:15:03;;;;;;;;;;;;;;;37.20;27.89;99494.13;4979276;28;7105;-74
2023/09/18 12:17:29;;;;;;;;;;;;;;;37.03;28.30;99481.22;4987157;28;6931;-74
2023/09/18 12:19:54;;;;;;;;;;;;;;;36.87;27.79;99479.72;4985480;28;6860;-74
2023/09/18 12:22:27;;;;;;;;;;;;;;;36.63;27.95;99480.66;4968432;28;6951;-75
2023/09/18 12:24:53;;;;;;;;;;;;;;;35.75;28.94;99479.13;4966992;28;7311;-74
2023/09/18 12:27:19;;;;;;;;;;;;;;;34.60;29.12;99479.88;4986080;28;6792;-75
2023/09/18 12:29:44;;;;;;;;;;;;;;;33.54;30.29;99483.09;4978030;28;6866;-75
2023/09/18 12:32:13;;;;;;;;;;;;;;;32.65;31.38;99499.84;4975558;28;7685;-75
2023/09/18 12:34:41;;;;;;;;;;;;;;;31.94;32.30;99496.75;4980203;28;6863;-75
2023/09/18 12:37:11;;;;;;;;;;;;;;;31.50;33.24;99507.97;4981298;28;7412;-75
2023/09/18 12:39:37;;;;;;;;;;;;;;;31.07;33.35;99497.84;4980248;28;6831;-75
2023/09/18 12:42:04;;;;;;;;;;;;;;;30.75;34.67;99498.53;4977465;28;7052;-75
2023/09/18 12:44:30;;;;;;;;;;;;;;;30.46;34.48;99500.81;4955465;28;7252;-75
2023/09/18 12:46:55;;;;;;;;;;;;;;;30.16;35.35;99498.75;4977164;28;7156;-75
2023/09/18 12:49:27;;;;;;;;;;;;;;;29.92;36.10;99512.16;4983455;28;6796;-75
2023/09/18 12:51:57;;;;;;;;;;;;;;;29.73;36.42;99507.72;4983771;28;6808;-75
2023/09/18 12:54:45;;;;;;;;;;;;;;;29.63;36.86;99491.47;4980548;28;6837;-75
2023/09/18 12:57:16;;;;;;;;;;;;;;;29.54;36.58;99502.44;4998317;28;6817;-75
2023/09/18 12:59:41;;;;;;;;;;;;;;;29.41;37.11;99499.47;4964547;28;7247;-74